Portada
METAR-TAF:

METAR-TAF

Aeroports :

Milford Municipal Airport (Ben and Judy Briscoe Field)

Milford, Utah, Estats Units d'Amèrica

latitud: 38-25-21N, longitud: 113-00-35W, altitud: 1536 m

Observació

L'informe es va fer fa 1 hora i 7 minuts, a les 15:52 UTC
Vent 6 kt del Sud
Temperatura -7°C
Humitat 79%
Pressió 1033 hPa
Visibilitat: 16.1 km
Cel clar

METAR: KMLF 261552Z AUTO 18006KT 10SM CLR M07/M10 A3051 RMK AO2 SLP375 T10671100

Hora: 09:59 (16:59 UTC)


TAF: manca

Observacions i pronòstics meteorològics de més de 4000 aeroports (METAR i TAF).

Les estacions disponibles són els punts grocs i vermells al mapa.

Posi el ratolí al punt desitjat per veure el nom de l'estació.

Feu clic per veure les observacions i els pronòstics meteorològics.

Per canviar el mapa: feu clic els botons verds amb una creu de color negre per apropar; al botó verd amb un guió per allunyar la imatge; o en les fletxes verdes per a mapes adjacents.


METAR-TAF: